Time;durP1;ratioP1;P1;durP2;ratioP2;P2;SDS_P1;SDS_P2;PMS_P1;PMS_P2;Temp;Humidity;BMP_temperature;BMP_pressure;BME280_temperature;BME280_humidity;BME280_pressure;Samples;Min_cycle;Max_cycle;Signal;HPM_P1;HPM_P2
2021/08/22 00:01:37;;;;;;;28.50;14.90;;;;;;;14.37;60.85;99351.90;112296;1207;107377;-76
2021/08/22 00:04:08;;;;;;;27.90;15.30;;;;;;;14.29;61.24;99346.84;112288;1200;97589;-74
2021/08/22 00:06:35;;;;;;;25.30;14.40;;;;;;;14.27;61.55;99346.35;112310;1200;97672;-75
2021/08/22 00:09:07;;;;;;;26.20;13.40;;;;;;;14.28;61.76;99340.88;112307;1204;109899;-75
2021/08/22 00:11:34;;;;;;;26.50;14.20;;;;;;;14.31;61.89;99344.35;112296;1203;97578;-75
2021/08/22 00:14:05;;;;;;;26.70;14.10;;;;;;;14.35;61.94;99339.79;112206;1207;106268;-74
2021/08/22 00:16:33;;;;;;;24.10;14.10;;;;;;;14.39;62.00;99338.42;112260;1197;97576;-75
2021/08/22 00:19:03;;;;;;;24.60;12.90;;;;;;;14.42;62.10;99336.64;112455;1200;96501;-75
2021/08/22 00:21:31;;;;;;;24.40;13.60;;;;;;;14.45;62.09;99335.70;112441;1203;110151;-74
2021/08/22 00:24:01;;;;;;;25.20;14.20;;;;;;;14.47;62.07;99334.19;112446;1204;97670;-74
2021/08/22 00:26:29;;;;;;;26.40;14.00;;;;;;;14.48;62.09;99335.34;112396;1205;107518;-74
2021/08/22 00:28:57;;;;;;;27.10;13.70;;;;;;;14.50;62.25;99334.43;112371;1203;95052;-75
2021/08/22 00:31:25;;;;;;;23.10;12.60;;;;;;;14.53;62.26;99333.50;112303;1195;97597;-75
2021/08/22 00:33:52;;;;;;;23.70;13.60;;;;;;;14.53;62.10;99326.71;112215;1203;111159;-73
2021/08/22 00:36:20;;;;;;;25.40;13.60;;;;;;;14.49;62.11;99330.54;112285;1207;97674;-76
2021/08/22 00:38:48;;;;;;;24.90;14.00;;;;;;;14.48;62.12;99331.01;112198;1204;107390;-76
2021/08/22 00:41:17;;;;;;;24.90;14.30;;;;;;;14.47;62.32;99332.02;112504;1199;95392;-75
2021/08/22 00:43:48;;;;;;;24.90;13.90;;;;;;;14.48;62.57;99332.21;112309;1198;94958;-75
2021/08/22 00:46:20;;;;;;;22.60;13.20;;;;;;;14.52;62.64;99331.75;112279;1204;111271;-75
2021/08/22 00:48:48;;;;;;;26.00;14.10;;;;;;;14.54;62.46;99338.48;112232;1205;95384;-74
2021/08/22 00:51:22;;;;;;;25.70;14.70;;;;;;;14.54;62.59;99337.27;112220;1204;107949;-75
2021/08/22 00:53:50;;;;;;;25.00;13.20;;;;;;;14.56;62.80;99338.91;112200;1198;97658;-76
2021/08/22 00:56:24;;;;;;;24.50;13.40;;;;;;;14.58;62.78;99341.26;112337;1203;96449;-75
2021/08/22 00:58:52;;;;;;;24.50;12.90;;;;;;;14.58;62.85;99342.45;112250;1204;111122;-75
2021/08/22 01:01:25;;;;;;;24.90;13.40;;;;;;;14.59;62.82;99337.77;112214;1204;97473;-75
2021/08/22 01:04:25;;;;;;;24.60;13.30;;;;;;;14.59;62.95;99341.63;112321;1205;107310;-75
2021/08/22 01:07:25;;;;;;;25.10;13.20;;;;;;;14.60;63.03;99340.39;112261;1196;95059;-75
2021/08/22 01:09:56;;;;;;;22.20;12.50;;;;;;;14.59;63.10;99343.09;112241;1199;97586;-76
2021/08/22 01:12:41;;;;;;;25.40;14.30;;;;;;;14.57;62.99;99344.14;112244;1205;111160;-76
2021/08/22 01:15:13;;;;;;;23.70;13.20;;;;;;;14.53;62.94;99342.34;112289;1204;97611;-75
2021/08/22 01:17:50;;;;;;;23.90;14.00;;;;;;;14.48;62.91;99343.34;112316;1200;108272;-76
2021/08/22 01:20:35;;;;;;;24.60;13.70;;;;;;;14.42;62.87;99339.94;112192;1199;97587;-76
2021/08/22 01:23:08;;;;;;;24.20;13.00;;;;;;;14.36;63.02;99344.31;112326;1198;97687;-76
2021/08/22 01:25:40;;;;;;;23.30;13.60;;;;;;;14.33;63.13;99340.34;112275;1196;112616;-75
2021/08/22 01:28:08;;;;;;;23.30;14.40;;;;;;;14.31;63.27;99339.52;112278;1204;97577;-75
2021/08/22 01:30:45;;;;;;;26.80;14.70;;;;;;;14.27;63.12;99335.60;112353;1205;107450;-76
2021/08/22 01:33:18;;;;;;;24.30;13.20;;;;;;;14.25;63.40;99334.02;112180;1200;97554;-74
2021/08/22 01:35:47;;;;;;;24.80;13.80;;;;;;;14.25;63.28;99334.91;112300;1198;97602;-74
2021/08/22 01:38:16;;;;;;;24.70;13.60;;;;;;;14.25;63.50;99332.96;113188;1196;111163;-76
2021/08/22 01:40:47;;;;;;;24.70;12.70;;;;;;;14.26;63.55;99330.13;112319;1204;97574;-75
2021/08/22 01:43:19;;;;;;;25.90;13.40;;;;;;;14.28;63.47;99325.89;112256;1205;107441;-75
2021/08/22 01:45:52;;;;;;;23.00;13.90;;;;;;;14.24;63.30;99330.02;112352;1196;97665;-76
2021/08/22 01:48:24;;;;;;;23.30;13.70;;;;;;;14.16;63.61;99332.43;112294;1204;97665;-77
2021/08/22 01:51:01;;;;;;;28.00;14.60;;;;;;;14.10;63.61;99330.41;112334;1200;110835;-76
2021/08/22 01:53:34;;;;;;;24.90;13.70;;;;;;;14.09;64.03;99328.94;112365;1205;95037;-76
2021/08/22 01:56:06;;;;;;;26.70;14.30;;;;;;;14.12;64.20;99325.98;112330;1204;107471;-76
2021/08/22 01:58:33;;;;;;;22.30;12.40;;;;;;;14.15;64.18;99321.24;112311;1199;95052;-74
2021/08/22 02:01:01;;;;;;;22.10;12.20;;;;;;;14.18;64.07;99322.66;112345;1204;97651;-74
2021/08/22 02:03:54;;;;;;;25.30;14.00;;;;;;;14.16;64.10;99322.78;112311;1204;111044;-74
2021/08/22 02:07:00;;;;;;;22.60;13.50;;;;;;;14.13;64.38;99319.81;112295;1206;97719;-75
2021/08/22 02:10:07;;;;;;;22.00;12.40;;;;;;;14.15;64.40;99317.73;112190;1203;107459;-76
2021/08/22 02:12:39;;;;;;;25.00;13.60;;;;;;;14.11;64.42;99316.76;112347;1205;97679;-75
2021/08/22 02:15:17;;;;;;;23.10;13.20;;;;;;;14.11;64.54;99315.67;112358;1205;98041;-75
2021/08/22 02:18:12;;;;;;;22.70;12.40;;;;;;;14.12;64.48;99314.89;112286;1204;111102;-76
2021/08/22 02:20:45;;;;;;;24.40;13.80;;;;;;;14.11;64.33;99316.09;112360;1204;97593;-75
2021/08/22 02:23:18;;;;;;;21.70;12.70;;;;;;;14.07;64.23;99315.86;112311;1205;107470;-75
2021/08/22 02:25:46;;;;;;;22.60;12.30;;;;;;;14.01;64.27;99314.27;112278;1200;97674;-76
2021/08/22 02:28:17;;;;;;;23.80;13.30;;;;;;;13.93;64.43;99312.20;112366;1204;97677;-74
2021/08/22 02:30:45;;;;;;;20.70;11.50;;;;;;;13.86;64.35;99314.36;112307;1204;110223;-74
2021/08/22 02:33:16;;;;;;;24.80;13.50;;;;;;;13.78;64.54;99309.13;112328;1196;97605;-76
2021/08/22 02:35:43;;;;;;;26.60;13.80;;;;;;;13.74;64.41;99311.63;112336;1204;107433;-75
2021/08/22 02:38:11;;;;;;;25.10;14.00;;;;;;;13.65;64.47;99311.08;112284;1204;97643;-77
2021/08/22 02:40:39;;;;;;;24.70;14.30;;;;;;;13.53;64.65;99307.62;112325;1204;97641;-74
2021/08/22 02:43:07;;;;;;;25.90;14.90;;;;;;;13.36;64.63;99311.06;112305;1204;110053;-74
2021/08/22 02:45:35;;;;;;;25.70;14.40;;;;;;;13.19;64.93;99302.64;112306;1204;97691;-75
2021/08/22 02:48:03;;;;;;;25.50;14.40;;;;;;;13.01;65.27;99302.77;112201;1205;107487;-73
2021/08/22 02:50:35;;;;;;;25.70;15.00;;;;;;;12.86;65.42;99305.24;112285;1196;98083;-75
2021/08/22 02:53:03;;;;;;;28.20;15.30;;;;;;;12.73;65.79;99303.94;112286;1200;95130;-75
2021/08/22 02:55:34;;;;;;;24.50;14.30;;;;;;;12.64;65.90;99302.65;112307;1204;110169;-74
2021/08/22 02:58:05;;;;;;;26.30;15.60;;;;;;;12.61;65.94;99304.69;112358;1204;97673;-73
2021/08/22 03:00:33;;;;;;;26.10;15.80;;;;;;;12.59;66.11;99302.88;112223;1203;107385;-75
2021/08/22 03:03:05;;;;;;;22.80;13.70;;;;;;;12.61;66.21;99304.67;112239;1202;97601;-74
2021/08/22 03:05:34;;;;;;;24.80;14.80;;;;;;;12.65;66.32;99307.05;112342;1200;97606;-74
2021/08/22 03:08:03;;;;;;;27.20;15.00;;;;;;;12.68;66.36;99306.08;112307;1200;110043;-74
2021/08/22 03:10:31;;;;;;;27.80;14.70;;;;;;;12.71;66.31;99309.63;112310;1196;98235;-74
2021/08/22 03:12:59;;;;;;;28.50;15.30;;;;;;;12.73;66.45;99309.11;112304;1200;107581;-74
2021/08/22 03:15:29;;;;;;;25.20;14.90;;;;;;;12.74;66.44;99307.39;112467;1205;97642;-75
2021/08/22 03:17:57;;;;;;;24.50;13.90;;;;;;;12.77;66.55;99308.04;112770;1196;97674;-77
2021/08/22 03:20:25;;;;;;;24.00;13.90;;;;;;;12.80;66.60;99308.38;112316;1198;111101;-77
2021/08/22 03:22:55;;;;;;;27.70;14.70;;;;;;;12.82;66.70;99308.41;112335;1204;97666;-79
2021/08/22 03:25:23;;;;;;;25.60;15.20;;;;;;;12.84;66.70;99308.46;112843;1195;107479;-77
2021/08/22 03:27:51;;;;;;;26.30;14.70;;;;;;;12.86;66.91;99310.41;112359;1204;96377;-75
2021/08/22 03:30:22;;;;;;;25.70;14.90;;;;;;;12.90;67.11;99309.71;112358;1204;97691;-75
2021/08/22 03:32:50;;;;;;;22.60;12.70;;;;;;;12.93;66.87;99310.38;112337;1205;110379;-76
2021/08/22 03:35:25;;;;;;;25.90;14.10;;;;;;;12.92;66.61;99312.75;112418;1205;97693;-74
2021/08/22 03:37:53;;;;;;;24.80;13.70;;;;;;;12.86;66.66;99315.01;112377;1205;107471;-76
2021/08/22 03:40:21;;;;;;;25.20;14.20;;;;;;;12.84;66.86;99320.73;112408;1197;97642;-75
2021/08/22 03:42:48;;;;;;;24.10;14.10;;;;;;;12.85;67.05;99322.04;112321;1204;95047;-74
2021/08/22 03:45:20;;;;;;;26.30;14.30;;;;;;;12.87;67.10;99322.38;112382;1204;111155;-73
2021/08/22 03:47:48;;;;;;;24.90;14.90;;;;;;;12.88;66.88;99322.84;112374;1204;97640;-73
2021/08/22 03:50:16;;;;;;;24.10;13.60;;;;;;;12.86;66.98;99319.63;112373;1205;105474;-73
2021/08/22 03:52:51;;;;;;;25.50;15.60;;;;;;;12.86;67.23;99323.02;112382;1204;97663;-75
2021/08/22 03:55:23;;;;;;;25.90;14.60;;;;;;;12.90;67.38;99319.71;112416;1200;95055;-75
2021/08/22 03:57:52;;;;;;;27.60;15.60;;;;;;;12.96;67.46;99321.38;112364;1204;110910;-76
2021/08/22 04:00:20;;;;;;;24.90;13.90;;;;;;;13.00;67.41;99323.55;112384;1204;97640;-73
2021/08/22 04:02:47;;;;;;;24.50;13.80;;;;;;;13.05;67.55;99325.10;112384;1204;108771;-75
2021/08/22 04:05:16;;;;;;;29.00;15.00;;;;;;;13.08;67.41;99324.46;112391;1200;97622;-73
2021/08/22 04:07:48;;;;;;;25.10;14.10;;;;;;;13.09;67.46;99320.89;113938;1196;95418;-73
2021/08/22 04:10:16;;;;;;;23.70;13.60;;;;;;;13.11;67.29;99323.06;112658;1196;111233;-75
2021/08/22 04:12:44;;;;;;;24.30;13.60;;;;;;;13.08;67.10;99321.99;112387;1205;97614;-75
2021/08/22 04:15:12;;;;;;;22.40;13.40;;;;;;;13.05;67.15;99325.62;112823;1196;107509;-77
2021/08/22 04:17:39;;;;;;;24.00;13.00;;;;;;;13.03;67.05;99325.60;113864;1195;97549;-76
2021/08/22 04:20:11;;;;;;;23.80;13.30;;;;;;;13.00;67.13;99326.25;112358;1195;97580;-73
2021/08/22 04:22:39;;;;;;;25.90;13.80;;;;;;;12.96;67.14;99326.15;112331;1196;110908;-73
2021/08/22 04:25:12;;;;;;;23.60;14.20;;;;;;;12.94;67.10;99327.73;112702;1196;98267;-74
2021/08/22 04:27:43;;;;;;;23.80;12.60;;;;;;;12.89;67.32;99322.94;112374;1205;107396;-74
2021/08/22 04:30:14;;;;;;;24.50;14.00;;;;;;;12.85;67.48;99324.86;112345;1205;97676;-74
2021/08/22 04:32:42;;;;;;;25.90;14.60;;;;;;;12.85;67.81;99324.33;112361;1204;96836;-74
2021/08/22 04:35:10;;;;;;;23.80;14.20;;;;;;;12.91;67.90;99325.15;112418;1205;111038;-73
2021/08/22 04:37:38;;;;;;;25.40;15.30;;;;;;;12.97;68.01;99324.30;112329;1205;97648;-73
2021/08/22 04:40:08;;;;;;;24.70;14.20;;;;;;;13.03;67.91;99322.56;112339;1204;107461;-75
2021/08/22 04:42:36;;;;;;;23.50;14.10;;;;;;;13.08;67.89;99315.58;112372;1203;96009;-76
2021/08/22 04:45:07;;;;;;;24.80;14.40;;;;;;;13.13;67.97;99312.36;112378;1195;97678;-75
2021/08/22 04:47:35;;;;;;;25.60;15.40;;;;;;;13.19;68.05;99317.05;112377;1204;112063;-75
2021/08/22 04:50:06;;;;;;;22.40;14.00;;;;;;;13.26;68.20;99315.77;112345;1200;97586;-76
2021/08/22 04:52:34;;;;;;;23.00;13.50;;;;;;;13.35;68.30;99315.67;112335;1203;107073;-75
2021/08/22 04:55:07;;;;;;;24.50;13.90;;;;;;;13.43;68.27;99313.09;112406;1200;95974;-74
2021/08/22 04:57:36;;;;;;;23.10;14.50;;;;;;;13.51;68.18;99316.49;112347;1204;97670;-74
2021/08/22 05:00:05;;;;;;;24.50;14.20;;;;;;;13.59;68.13;99312.65;112318;1196;111116;-76
2021/08/22 05:02:37;;;;;;;27.30;15.50;;;;;;;13.66;68.12;99313.30;112510;1196;96172;-77
2021/08/22 05:05:05;;;;;;;23.30;12.50;;;;;;;13.73;68.16;99315.30;112350;1196;107335;-75
2021/08/22 05:07:33;;;;;;;23.80;13.60;;;;;;;13.77;68.10;99314.23;112399;1198;97745;-76
2021/08/22 05:10:04;;;;;;;23.30;14.30;;;;;;;13.82;68.28;99314.01;112416;1199;95138;-76
2021/08/22 05:12:36;;;;;;;24.30;13.50;;;;;;;13.87;68.45;99314.31;112366;1203;110234;-75
2021/08/22 05:15:09;;;;;;;24.80;14.40;;;;;;;13.94;68.61;99318.55;112345;1202;98086;-76
2021/08/22 05:17:41;;;;;;;23.20;15.50;;;;;;;14.02;68.73;99320.24;112362;1203;107465;-77
2021/08/22 05:20:13;;;;;;;24.10;14.20;;;;;;;14.10;68.78;99320.44;112328;1196;95044;-76
2021/08/22 05:22:40;;;;;;;21.30;12.50;;;;;;;14.19;68.52;99320.27;112401;1200;97595;-75
2021/08/22 05:25:08;;;;;;;23.80;14.50;;;;;;;14.26;68.45;99314.52;112386;1205;111117;-75
2021/08/22 05:27:37;;;;;;;24.20;13.90;;;;;;;14.32;68.53;99311.52;112367;1204;97586;-74
2021/08/22 05:30:07;;;;;;;23.20;13.50;;;;;;;14.38;68.55;99313.66;112661;1196;107479;-73
2021/08/22 05:32:35;;;;;;;24.90;13.30;;;;;;;14.43;68.70;99311.77;112728;1196;97590;-74
2021/08/22 05:35:03;;;;;;;23.80;13.40;;;;;;;14.49;68.75;99312.02;112336;1200;97590;-74
2021/08/22 05:37:31;;;;;;;23.40;14.20;;;;;;;14.54;68.87;99316.88;112388;1205;111097;-74
2021/08/22 05:40:03;;;;;;;22.10;13.00;;;;;;;14.59;68.92;99319.55;112321;1205;97780;-73
2021/08/22 05:42:30;;;;;;;24.10;13.70;;;;;;;14.64;69.05;99319.15;112367;1197;107435;-79
2021/08/22 05:44:58;;;;;;;21.50;12.50;;;;;;;14.70;69.08;99318.95;112285;1200;97850;-75
2021/08/22 05:47:26;;;;;;;22.90;13.30;;;;;;;14.80;68.99;99319.77;112328;1203;97635;-77
2021/08/22 05:49:54;;;;;;;21.50;12.50;;;;;;;14.91;69.19;99324.54;112929;1196;110759;-76
2021/08/22 05:52:25;;;;;;;22.60;13.90;;;;;;;15.04;69.17;99323.22;112459;1196;97563;-77
2021/08/22 05:54:53;;;;;;;22.30;12.50;;;;;;;15.17;69.07;99322.13;112290;1204;107393;-75
2021/08/22 05:57:21;;;;;;;22.50;13.10;;;;;;;15.28;69.01;99322.77;112313;1196;95330;-75
2021/08/22 05:59:49;;;;;;;20.90;11.70;;;;;;;15.38;69.13;99322.44;112363;1198;95068;-77
2021/08/22 06:02:20;;;;;;;22.30;13.60;;;;;;;15.48;69.07;99323.00;112362;1200;111096;-76
2021/08/22 06:04:55;;;;;;;24.50;13.80;;;;;;;15.55;69.20;99317.85;112342;1204;95892;-75
2021/08/22 06:07:23;;;;;;;23.10;12.70;;;;;;;15.66;69.19;99315.35;112226;1196;107418;-74
2021/08/22 06:09:54;;;;;;;21.80;12.50;;;;;;;15.73;69.16;99316.42;112333;1198;97574;-74
2021/08/22 06:12:22;;;;;;;20.60;11.30;;;;;;;15.81;69.29;99314.88;112359;1204;97687;-74
2021/08/22 06:14:50;;;;;;;21.40;11.80;;;;;;;15.88;69.26;99316.55;112385;1204;111139;-75
2021/08/22 06:17:18;;;;;;;20.40;12.20;;;;;;;15.96;69.17;99318.51;112372;1204;97544;-76
2021/08/22 06:19:49;;;;;;;21.70;11.70;;;;;;;16.01;69.15;99313.62;112329;1204;106455;-75
2021/08/22 06:22:21;;;;;;;19.70;11.40;;;;;;;16.07;69.16;99315.41;112316;1204;97699;-75
2021/08/22 06:24:49;;;;;;;21.20;12.20;;;;;;;16.15;69.27;99316.78;112375;1196;95025;-74
2021/08/22 06:27:17;;;;;;;20.90;11.20;;;;;;;16.24;69.20;99310.12;112386;1204;109973;-73
2021/08/22 06:29:44;;;;;;;20.90;11.50;;;;;;;16.34;69.22;99304.51;112378;1202;95023;-73
2021/08/22 06:32:16;;;;;;;19.60;10.90;;;;;;;16.42;69.16;99304.45;112314;1196;107235;-72
2021/08/22 06:34:44;;;;;;;21.30;12.00;;;;;;;16.54;69.19;99304.48;112255;1204;97701;-75
2021/08/22 06:37:11;;;;;;;19.10;10.80;;;;;;;16.64;69.17;99308.17;112354;1200;95025;-74
2021/08/22 06:39:42;;;;;;;19.00;10.80;;;;;;;16.75;69.14;99299.64;112233;1204;111122;-76
2021/08/22 06:42:10;;;;;;;20.80;10.60;;;;;;;16.87;69.32;99295.63;112300;1204;97664;-75
2021/08/22 06:44:39;;;;;;;20.00;11.30;;;;;;;16.99;69.27;99294.36;112327;1204;106700;-76
2021/08/22 06:47:10;;;;;;;19.10;10.50;;;;;;;17.11;69.37;99292.66;112322;1198;97558;-76
2021/08/22 06:49:42;;;;;;;21.30;11.50;;;;;;;17.22;69.08;99293.90;112235;1195;97624;-76
2021/08/22 06:52:11;;;;;;;19.80;10.70;;;;;;;17.32;69.16;99287.02;112271;1204;111055;-76
2021/08/22 06:54:41;;;;;;;17.70;9.90;;;;;;;17.45;69.09;99285.83;112349;1204;97769;-75
2021/08/22 06:57:13;;;;;;;18.90;9.90;;;;;;;17.55;68.93;99280.83;112290;1204;108627;-75
2021/08/22 06:59:41;;;;;;;18.90;10.80;;;;;;;17.64;68.90;99282.64;112275;1204;97547;-75
2021/08/22 07:02:10;;;;;;;18.20;9.70;;;;;;;17.75;68.91;99285.40;112328;1199;97552;-74
2021/08/22 07:04:41;;;;;;;19.40;10.50;;;;;;;17.88;68.98;99286.41;112303;1198;110060;-75
2021/08/22 07:07:09;;;;;;;19.10;10.60;;;;;;;18.04;68.96;99285.92;112196;1204;97695;-74
2021/08/22 07:09:37;;;;;;;17.60;10.80;;;;;;;18.19;68.96;99288.56;112319;1204;107514;-74
2021/08/22 07:12:08;;;;;;;20.80;11.20;;;;;;;18.32;68.92;99284.73;112331;1204;95179;-74
2021/08/22 07:14:36;;;;;;;19.40;10.50;;;;;;;18.48;68.97;99286.33;112282;1198;95193;-76
2021/08/22 07:17:04;;;;;;;20.40;9.00;;;;;;;18.80;68.53;99284.57;112282;1204;109690;-73
2021/08/22 07:19:32;;;;;;;16.90;8.70;;;;;;;20.10;66.96;99286.81;112310;1204;97706;-74
2021/08/22 07:21:59;;;;;;;15.40;7.60;;;;;;;21.56;66.25;99283.20;112322;1204;107241;-74
2021/08/22 07:24:27;;;;;;;13.20;7.10;;;;;;;22.93;66.07;99282.30;112302;1196;97599;-75
2021/08/22 07:26:55;;;;;;;13.60;7.20;;;;;;;24.13;65.72;99279.76;112355;1204;97601;-75
2021/08/22 07:29:24;;;;;;;10.90;5.80;;;;;;;25.26;65.32;99282.55;112267;1196;111238;-72
2021/08/22 07:31:51;;;;;;;9.90;5.80;;;;;;;26.24;64.84;99279.81;112323;1204;97707;-75
2021/08/22 07:34:19;;;;;;;11.80;6.10;;;;;;;26.97;64.31;99278.30;112299;1204;107445;-74
2021/08/22 07:36:47;;;;;;;11.30;5.90;;;;;;;27.65;63.97;99280.11;112315;1196;95088;-75
2021/08/22 07:39:15;;;;;;;12.70;6.10;;;;;;;28.39;63.63;99282.20;112383;1196;97580;-77
2021/08/22 07:41:47;;;;;;;12.30;5.70;;;;;;;29.18;63.12;99278.37;112300;1203;111176;-75
2021/08/22 07:44:14;;;;;;;9.20;5.20;;;;;;;29.70;62.44;99283.88;112287;1204;98076;-74
2021/08/22 07:46:42;;;;;;;14.60;8.00;;;;;;;30.14;61.85;99281.61;112245;1204;107447;-74
2021/08/22 07:49:12;;;;;;;10.70;6.10;;;;;;;30.90;61.81;99280.89;112328;1204;97593;-77
2021/08/22 07:51:40;;;;;;;10.90;5.50;;;;;;;31.82;61.44;99282.68;112306;1195;97594;-78
2021/08/22 07:54:08;;;;;;;9.70;5.40;;;;;;;32.49;61.23;99280.31;112284;1196;102274;-77
2021/08/22 07:56:42;;;;;;;8.80;5.30;;;;;;;32.78;60.28;99282.91;112303;1204;97681;-78
2021/08/22 07:59:12;;;;;;;10.30;5.70;;;;;;;32.89;59.54;99281.60;112257;1204;98829;-80
2021/08/22 08:01:40;;;;;;;9.70;4.60;;;;;;;32.97;58.69;99284.96;112312;1196;98275;-78
2021/08/22 08:04:09;;;;;;;8.50;4.60;;;;;;;32.64;56.86;99285.95;112291;1197;95060;-76
2021/08/22 08:06:36;;;;;;;7.80;4.60;;;;;;;32.30;55.83;99285.98;112267;1200;102205;-79
2021/08/22 08:09:04;;;;;;;10.30;5.10;;;;;;;32.10;55.38;99285.05;112270;1204;97674;-78
2021/08/22 08:11:32;;;;;;;6.30;4.50;;;;;;;32.10;54.87;99281.71;112252;1204;98837;-78
2021/08/22 08:14:00;;;;;;;6.70;4.50;;;;;;;31.97;53.01;99283.47;112302;1204;97587;-79
2021/08/22 08:16:27;;;;;;;7.80;4.60;;;;;;;31.80;52.25;99282.67;112282;1203;97577;-79
2021/08/22 08:18:55;;;;;;;10.60;5.70;;;;;;;31.74;51.92;99283.54;112257;1196;102713;-78
2021/08/22 08:21:23;;;;;;;7.70;4.70;;;;;;;31.41;51.64;99280.81;112295;1196;97667;-77
2021/08/22 08:23:51;;;;;;;7.20;5.00;;;;;;;31.30;51.92;99278.65;112271;1204;98876;-77
2021/08/22 08:26:20;;;;;;;11.50;5.60;;;;;;;31.77;51.99;99279.12;112266;1203;97578;-77
2021/08/22 08:28:48;;;;;;;6.90;4.50;;;;;;;32.24;51.07;99281.30;112305;1204;97648;-78
2021/08/22 08:31:17;;;;;;;7.40;4.70;;;;;;;32.12;49.99;99280.14;112242;1196;102480;-78
2021/08/22 08:33:50;;;;;;;9.70;5.20;;;;;;;31.85;48.95;99276.70;112271;1203;95439;-78
2021/08/22 08:36:18;;;;;;;9.20;5.10;;;;;;;31.60;47.58;99274.35;112268;1203;99808;-78
2021/08/22 08:38:46;;;;;;;7.30;4.60;;;;;;;31.63;47.99;99270.62;112309;1196;97570;-79
2021/08/22 08:41:14;;;;;;;7.40;4.80;;;;;;;32.21;48.30;99271.42;112295;1197;97615;-79
2021/08/22 08:43:48;;;;;;;8.40;5.00;;;;;;;33.02;48.57;99270.80;112357;1198;101994;-78
2021/08/22 08:46:16;;;;;;;7.80;4.80;;;;;;;33.79;47.62;99273.90;112288;1203;97869;-79
2021/08/22 08:49:08;;;;;;;8.50;4.80;;;;;;;33.65;46.51;99274.40;112277;1204;98918;-79
2021/08/22 08:52:01;;;;;;;11.50;4.90;;;;;;;33.47;46.63;99273.21;112291;1204;95038;-78
2021/08/22 08:54:45;;;;;;;7.10;4.50;;;;;;;33.62;45.82;99271.83;112295;1204;98757;-77
2021/08/22 08:57:17;;;;;;;8.10;4.50;;;;;;;33.35;45.12;99276.85;112270;1204;102527;-78
2021/08/22 08:59:45;;;;;;;7.70;4.30;;;;;;;33.30;44.64;99270.33;112269;1204;96267;-76
2021/08/22 09:02:12;;;;;;;6.10;4.40;;;;;;;33.68;44.93;99268.75;112286;1198;107367;-77
2021/08/22 09:04:57;;;;;;;7.00;4.20;;;;;;;33.93;44.45;99267.20;112249;1203;95051;-78
2021/08/22 09:07:25;;;;;;;;;;;;;;;33.69;42.76;99268.86;112320;1196;97571;-76
2021/08/22 09:10:31;;;;;;;10.10;4.20;;;;;;;33.35;43.05;99267.31;112302;1204;102493;-77
2021/08/22 09:13:14;;;;;;;10.00;4.50;;;;;;;33.76;43.21;99261.55;112311;1204;96079;-77
2021/08/22 09:16:00;;;;;;;5.80;3.70;;;;;;;34.43;42.85;99261.27;112264;1197;98630;-78
2021/08/22 09:19:06;;;;;;;5.00;3.60;;;;;;;34.12;40.93;99264.81;112274;1196;95045;-80
2021/08/22 09:22:11;;;;;;;6.50;4.00;;;;;;;33.66;40.58;99261.77;112294;1196;97651;-78
2021/08/22 09:25:04;;;;;;;5.70;3.50;;;;;;;33.89;41.25;99260.31;112240;1204;102755;-79
2021/08/22 09:27:51;;;;;;;8.00;4.20;;;;;;;34.21;40.72;99257.39;112334;1197;98098;-78
2021/08/22 09:30:31;;;;;;;7.00;4.10;;;;;;;34.60;40.77;99254.92;112322;1203;97958;-77
2021/08/22 09:33:34;;;;;;;5.10;3.70;;;;;;;35.19;40.65;99252.88;112300;1203;98020;-75
2021/08/22 09:36:23;;;;;;;5.50;3.80;;;;;;;35.45;39.58;99256.02;112320;1197;97670;-77
2021/08/22 09:39:28;;;;;;;6.60;4.00;;;;;;;35.19;39.19;99257.20;112321;1203;102529;-81
2021/08/22 09:42:05;;;;;;;4.40;3.40;;;;;;;35.22;39.49;99256.33;112414;1195;95450;-80
2021/08/22 09:44:47;;;;;;;5.10;3.40;;;;;;;35.11;38.86;99256.66;112351;1203;98613;-80
2021/08/22 09:47:45;;;;;;;5.50;3.20;;;;;;;34.24;37.85;99263.30;112375;1197;97706;-83
2021/08/22 09:50:35;;;;;;;4.40;3.20;;;;;;;32.97;37.34;99262.16;112363;1196;98130;-83
2021/08/22 09:53:54;;;;;;;5.40;3.10;;;;;;;31.97;37.06;99257.88;112395;1204;102509;-82
2021/08/22 09:57:05;;;;;;;5.70;3.80;;;;;;;31.26;36.79;99255.80;112125;1204;97658;-78
2021/08/22 10:00:07;;;;;;;4.70;3.20;;;;;;;30.98;36.99;99256.09;112240;1204;98800;-70
2021/08/22 10:02:59;;;;;;;8.80;3.60;;;;;;;31.02;37.02;99255.63;112164;1197;97589;-68
2021/08/22 10:05:46;;;;;;;5.40;3.50;;;;;;;31.06;36.92;99254.33;112257;1204;97638;-68
2021/08/22 10:08:38;;;;;;;12.80;4.70;;;;;;;30.92;36.97;99247.30;112121;1204;103093;-70
2021/08/22 10:11:10;;;;;;;8.10;4.40;;;;;;;30.79;36.95;99249.70;112279;1204;97548;-69
2021/08/22 10:13:41;;;;;;;8.70;4.00;;;;;;;30.79;36.93;99248.39;112178;1204;108059;-69
2021/08/22 10:16:19;;;;;;;9.90;3.80;;;;;;;30.58;36.49;99246.30;112343;1203;97694;-70
2021/08/22 10:18:47;;;;;;;11.90;4.90;;;;;;;30.42;36.71;99236.48;112341;1203;96814;-70
2021/08/22 10:21:27;;;;;;;6.50;4.00;;;;;;;30.42;36.75;99240.77;112254;1196;111144;-70
2021/08/22 10:24:05;;;;;;;5.80;3.60;;;;;;;30.09;36.30;99240.63;112248;1198;98071;-70
2021/08/22 10:26:57;;;;;;;8.10;4.00;;;;;;;29.69;36.13;99239.91;112292;1196;107154;-68
2021/08/22 10:29:28;;;;;;;6.90;3.90;;;;;;;29.39;36.04;99238.77;112220;1196;97576;-68
2021/08/22 10:31:55;;;;;;;10.40;4.50;;;;;;;29.11;35.88;99236.81;112222;1203;96054;-69
2021/08/22 10:34:28;;;;;;;8.20;3.80;;;;;;;28.79;35.69;99234.69;112187;1203;111685;-69
2021/08/22 10:37:00;;;;;;;6.70;4.20;;;;;;;28.44;35.39;99236.08;112233;1204;95219;-69
2021/08/22 10:39:31;;;;;;;6.70;4.00;;;;;;;28.13;35.60;99234.44;112220;1203;107384;-68
2021/08/22 10:42:24;;;;;;;9.20;4.20;;;;;;;27.97;35.74;99228.28;112213;1197;96133;-67
2021/08/22 10:44:55;;;;;;;9.40;4.20;;;;;;;27.99;35.79;99230.08;112230;1197;97655;-69
2021/08/22 10:47:35;;;;;;;6.80;3.90;;;;;;;28.03;36.02;99227.94;112179;1204;111661;-68
2021/08/22 10:50:03;;;;;;;6.60;4.30;;;;;;;28.03;35.92;99229.16;112293;1197;97576;-71
2021/08/22 10:52:39;;;;;;;7.30;3.90;;;;;;;28.00;35.93;99227.42;112194;1203;107406;-68
2021/08/22 10:55:13;;;;;;;7.80;4.10;;;;;;;28.04;35.96;99230.34;112218;1203;97642;-67
2021/08/22 11:00:35;;;;;;;8.30;3.80;;;;;;;28.17;35.70;99230.84;112294;1203;111562;-68
2021/08/22 11:03:03;;;;;;;5.00;3.50;;;;;;;28.08;35.45;99228.63;112257;1203;98035;-70
2021/08/22 11:05:37;;;;;;;7.10;3.90;;;;;;;27.92;35.16;99230.55;112209;1204;107799;-70
2021/08/22 11:08:20;;;;;;;7.00;4.10;;;;;;;27.76;35.30;99235.52;112304;1203;97576;-69
2021/08/22 11:11:00;;;;;;;5.80;3.90;;;;;;;27.77;35.59;99235.23;112269;1197;95815;-69
2021/08/22 11:13:32;;;;;;;6.00;3.70;;;;;;;27.84;35.72;99232.88;112256;1197;111113;-69
2021/08/22 11:16:07;;;;;;;5.00;3.90;;;;;;;27.84;35.83;99231.48;112267;1204;97727;-70
2021/08/22 11:18:47;;;;;;;6.30;4.00;;;;;;;27.74;35.59;99230.13;112192;1204;108188;-69
2021/08/22 11:21:28;;;;;;;9.20;4.60;;;;;;;27.73;35.82;99230.23;112224;1197;95015;-69
2021/08/22 11:24:02;;;;;;;10.80;4.70;;;;;;;27.77;36.23;99230.06;112259;1204;97629;-71
2021/08/22 11:26:34;;;;;;;46.90;12.20;;;;;;;27.87;36.28;99221.64;112311;1196;111114;-68
2021/08/22 11:29:03;;;;;;;31.70;8.60;;;;;;;27.95;36.21;99217.62;112285;1203;97690;-70
2021/08/22 11:31:34;;;;;;;18.70;6.40;;;;;;;28.00;35.98;99217.70;112187;1204;107965;-70
2021/08/22 11:34:15;;;;;;;32.10;8.60;;;;;;;28.06;36.23;99216.15;112721;1196;97595;-69
2021/08/22 11:36:43;;;;;;;26.30;7.80;;;;;;;28.08;36.25;99216.43;113880;1195;95811;-70
2021/08/22 11:39:13;;;;;;;12.80;4.90;;;;;;;28.08;36.43;99217.73;113891;1196;111107;-69
2021/08/22 11:41:48;;;;;;;16.70;6.00;;;;;;;28.07;36.29;99218.79;113303;1196;98084;-69